Skip Navigation Links Skip Navigation Links

Current Weather

Burlington-Alamance Rgnl, Burlington, N.C.

For information only: do not use for flight planning or navigation.
Latest weather
Observation time Thursday, October 18, 2018 12:54 AM EDT
Local time Thursday, October 18, 2018 1:35 AM EDT
Flight conditions Visual Meteorological Conditions
Winds
Wind direction Northwest (310°)
Wind speed 3 mph
Visibility 10 mi.
Sky condition
Ceiling unlimited
Sky clear
Temperature 54°F
Dewpoint 45°F
Altimeter 30.25 in.Hg
Derived measurements
Relative humidity 72%
Density altitude 55 ft.
Sea-level pressure 30.24 in.Hg
Climate data
Temperature minimum, last 24 hours 54°F
Temperature maximum, last 24 hours 74°F
Remarks
Fully automated report.
Automated weather observing station with precipitation discriminator.
METAR KBUY 180454Z AUTO 31003KT 10SM CLR 12/07 A3025 RMK AO2 SLP240 T01220072 402330122

Settings

Location code

InnerDrive.Weather 4.0.6770.0 Release CLR 4.0.30319.42000
Copyright ©2018 Inner Drive Technology. All rights reserved. Portions Copyright ©1986-2018 David Braverman.

Find weather

Site navigation


Skip Navigation Links

Place info

Page info

PayPal - The safer, easier way to pay online!

Return home.

Copyright ©2018 Inner Drive Technology. Purveyors of fine, hand-crafted computer software. Page printed 2018-10-18T05:35:25 UTC.